Terminal Aerodrome Forecast
Issued by NWS Charleston, WV

Current Version | Previous Version | Graphics & Text | Print | Product List | Glossary On
Versions: 1 2 3 4 5 6 7 8 9 10 11 12 13 14 15 16 17 18 19 20 21 22 23 24
425
FTUS41 KRLX 121556 AAB
TAFCRW
TAF AMD
KCRW 121556Z 1216/1312 27009G19KT 4SM -SN OVC015
      TEMPO 1216/1218 1SM -SHSN BKN008
     FM121800 29010G23KT P6SM -SHSN BKN035
      TEMPO 1218/1222 1SM -SHSN BKN015
     FM130300 28009G19KT P6SM BKN035=

USA.gov is the U.S. government's official web portal to all federal, state and local government web resources and services.